Time;durP1;ratioP1;P1;durP2;ratioP2;P2;SDS_P1;SDS_P2;PMS_P1;PMS_P2;Temp;Humidity;BMP_temperature;BMP_pressure;BME280_temperature;BME280_humidity;BME280_pressure;Samples;Min_cycle;Max_cycle;Signal;HPM_P1;HPM_P2
2023/09/02 00:02:12;;;;;;;1.60;1.40;;;;;;;;;;5028964;28;20176;-75
2023/09/02 00:04:37;;;;;;;1.30;1.20;;;;;;;;;;5024976;28;20181;-75
2023/09/02 00:07:03;;;;;;;1.80;1.70;;;;;;;;;;5028546;28;20226;-75
2023/09/02 00:09:28;;;;;;;2.37;1.50;;;;;;;;;;5029976;28;20203;-74
2023/09/02 00:11:53;;;;;;;1.40;1.30;;;;;;;;;;5004417;28;20323;-74
2023/09/02 00:14:18;;;;;;;1.00;1.00;;;;;;;;;;4993402;28;20179;-74
2023/09/02 00:16:43;;;;;;;1.30;1.20;;;;;;;;;;5009453;28;20204;-76
2023/09/02 00:19:09;;;;;;;1.40;1.30;;;;;;;;;;4994906;28;20172;-75
2023/09/02 00:21:34;;;;;;;1.73;1.20;;;;;;;;;;5009909;28;20233;-75
2023/09/02 00:24:03;;;;;;;4.77;1.73;;;;;;;;;;5012518;28;20290;-74
2023/09/02 00:26:31;;;;;;;1.30;1.20;;;;;;;;;;5013160;28;20168;-75
2023/09/02 00:28:57;;;;;;;3.30;1.37;;;;;;;;;;5014466;28;20180;-75
2023/09/02 00:31:22;;;;;;;2.20;1.43;;;;;;;;;;5000932;28;20290;-74
2023/09/02 00:33:47;;;;;;;1.80;1.40;;;;;;;;;;4999331;28;20179;-74
2023/09/02 00:36:14;;;;;;;2.43;1.40;;;;;;;;;;5012793;28;20204;-75
2023/09/02 00:38:39;;;;;;;4.37;1.70;;;;;;;;;;5010871;28;20186;-75
2023/09/02 00:41:07;;;;;;;1.53;1.43;;;;;;;;;;5014408;28;20178;-74
2023/09/02 00:43:32;;;;;;;2.10;1.50;;;;;;;;;;5013293;28;20186;-74
2023/09/02 00:45:58;;;;;;;1.27;1.17;;;;;;;;;;5010680;28;20208;-75
2023/09/02 00:48:23;;;;;;;2.10;1.10;;;;;;;;;;5016826;28;20173;-74
2023/09/02 00:50:48;;;;;;;3.53;1.60;;;;;;;;;;5002572;28;20256;-74
2023/09/02 00:53:14;;;;;;;1.53;1.20;;;;;;;;;;5008513;28;20207;-74
2023/09/02 00:55:39;;;;;;;2.13;1.50;;;;;;;;;;5013304;28;20204;-75
2023/09/02 00:58:05;;;;;;;1.40;1.30;;;;;;;;;;5013217;28;20197;-74
2023/09/02 01:00:30;;;;;;;1.67;1.43;;;;;;;;;;4995688;28;20192;-75
2023/09/02 01:02:57;;;;;;;1.60;1.50;;;;;;;;;;4994194;28;20202;-74
2023/09/02 01:05:22;;;;;;;3.13;1.50;;;;;;;;;;5012360;28;20266;-74
2023/09/02 01:07:48;;;;;;;1.20;1.10;;;;;;;;;;4998839;28;20255;-74
2023/09/02 01:10:13;;;;;;;1.70;1.30;;;;;;;;;;5012677;28;20272;-74
2023/09/02 01:12:39;;;;;;;1.50;1.40;;;;;;;;;;5024082;28;20231;-74
2023/09/02 01:15:05;;;;;;;1.70;1.43;;;;;;;;;;5014474;28;20243;-74
2023/09/02 01:17:30;;;;;;;1.40;1.30;;;;;;;;;;5016127;28;20179;-74
2023/09/02 01:19:56;;;;;;;2.23;1.40;;;;;;;;;;5031975;28;20179;-74
2023/09/02 01:22:25;;;;;;;2.00;1.57;;;;;;;;;;5031593;28;20266;-74
2023/09/02 01:24:54;;;;;;;2.37;1.50;;;;;;;;;;5032094;28;20171;-74
2023/09/02 01:27:28;;;;;;;1.33;1.23;;;;;;;;;;5031427;28;20266;-74
2023/09/02 01:29:53;;;;;;;3.13;1.50;;;;;;;;;;5028418;28;20187;-74
2023/09/02 01:32:19;;;;;;;1.77;1.33;;;;;;;;;;5031093;28;20168;-74
2023/09/02 01:34:45;;;;;;;1.57;1.47;;;;;;;;;;5014324;28;20175;-74
2023/09/02 01:37:10;;;;;;;1.40;1.30;;;;;;;;;;5013767;28;20218;-74
2023/09/02 01:39:37;;;;;;;1.77;1.53;;;;;;;;;;5028040;28;20180;-74
2023/09/02 01:42:03;;;;;;;1.57;1.40;;;;;;;;;;5031818;28;20180;-74
2023/09/02 01:44:29;;;;;;;1.60;1.40;;;;;;;;;;5013503;28;20235;-74
2023/09/02 01:46:55;;;;;;;1.80;1.57;;;;;;;;;;5014221;28;20184;-74
2023/09/02 01:49:21;;;;;;;1.93;1.67;;;;;;;;;;5030638;28;20187;-74
2023/09/02 01:51:46;;;;;;;1.30;1.20;;;;;;;;;;5029669;28;20219;-74
2023/09/02 01:54:11;;;;;;;1.47;1.37;;;;;;;;;;5013902;28;20186;-74
2023/09/02 01:56:37;;;;;;;1.30;1.20;;;;;;;;;;5013295;28;20200;-74
2023/09/02 01:59:02;;;;;;;1.37;1.20;;;;;;;;;;5014428;28;20186;-75
2023/09/02 02:01:27;;;;;;;1.67;1.57;;;;;;;;;;5014114;28;20235;-74
2023/09/02 02:04:04;;;;;;;1.67;1.57;;;;;;;;;;5030675;28;20238;-74
2023/09/02 02:06:31;;;;;;;2.40;1.67;;;;;;;;;;5027519;28;20262;-74
2023/09/02 02:09:02;;;;;;;2.03;1.70;;;;;;;;;;5016434;28;20254;-74
2023/09/02 02:11:29;;;;;;;2.43;1.83;;;;;;;;;;5030308;28;20242;-74
2023/09/02 02:13:59;;;;;;;1.50;1.40;;;;;;;;;;5013151;28;20186;-74
2023/09/02 02:16:24;;;;;;;1.47;1.37;;;;;;;;;;5029628;28;20241;-74
2023/09/02 02:18:49;;;;;;;2.63;1.70;;;;;;;;;;5030679;28;20179;-75
2023/09/02 02:21:15;;;;;;;3.73;2.20;;;;;;;;;;5015895;28;20196;-74
2023/09/02 02:23:40;;;;;;;1.80;1.70;;;;;;;;;;5034893;28;20189;-74
2023/09/02 02:26:05;;;;;;;1.93;1.73;;;;;;;;;;5030454;28;20193;-74
2023/09/02 02:28:31;;;;;;;1.70;1.60;;;;;;;;;;5029521;28;20182;-74
2023/09/02 02:30:57;;;;;;;1.70;1.40;;;;;;;;;;5030594;28;20183;-74
2023/09/02 02:33:22;;;;;;;2.27;1.80;;;;;;;;;;5014106;28;20321;-74
2023/09/02 02:35:47;;;;;;;2.23;1.60;;;;;;;;;;5032042;28;20294;-74
2023/09/02 02:38:12;;;;;;;1.67;1.33;;;;;;;;;;5031319;28;20174;-74
2023/09/02 02:40:38;;;;;;;1.67;1.30;;;;;;;;;;5018329;28;20166;-75
2023/09/02 02:43:03;;;;;;;2.70;1.70;;;;;;;;;;5030462;28;20174;-74
2023/09/02 02:45:28;;;;;;;2.30;1.60;;;;;;;;;;5030478;28;20193;-74
2023/09/02 02:47:54;;;;;;;1.90;1.60;;;;;;;;;;5029522;28;20197;-74
2023/09/02 02:50:19;;;;;;;1.87;1.67;;;;;;;;;;5030008;28;20208;-74
2023/09/02 02:52:44;;;;;;;1.70;1.50;;;;;;;;;;5030906;28;20277;-74
2023/09/02 02:55:09;;;;;;;1.67;1.57;;;;;;;;;;5012525;28;20171;-74
2023/09/02 02:57:34;;;;;;;1.73;1.60;;;;;;;;;;5028958;28;20178;-74
2023/09/02 03:00:00;;;;;;;2.33;2.00;;;;;;;;;;5030596;28;20187;-74
2023/09/02 03:02:25;;;;;;;1.77;1.43;;;;;;;;;;5028250;28;20171;-75
2023/09/02 03:04:50;;;;;;;1.87;1.67;;;;;;;;;;5027185;28;20187;-74
2023/09/02 03:07:16;;;;;;;1.47;1.37;;;;;;;;;;5031658;28;20176;-74
2023/09/02 03:09:41;;;;;;;1.80;1.60;;;;;;;;;;5030177;28;20206;-74
2023/09/02 03:12:07;;;;;;;2.10;1.57;;;;;;;;;;5009334;28;20241;-74
2023/09/02 03:14:32;;;;;;;1.90;1.40;;;;;;;;;;5027770;28;20196;-74
2023/09/02 03:16:57;;;;;;;1.60;1.50;;;;;;;;;;5030733;28;20194;-74
2023/09/02 03:19:22;;;;;;;1.67;1.50;;;;;;;;;;5029702;28;20203;-74
2023/09/02 03:21:48;;;;;;;2.30;1.97;;;;;;;;;;5029427;28;20185;-74
2023/09/02 03:24:13;;;;;;;1.80;1.60;;;;;;;;;;5031601;28;20233;-74
2023/09/02 03:26:38;;;;;;;1.83;1.73;;;;;;;;;;5029308;28;20195;-75
2023/09/02 03:29:03;;;;;;;2.80;1.90;;;;;;;;;;5029696;28;20214;-75
2023/09/02 03:31:28;;;;;;;1.80;1.70;;;;;;;;;;5029962;28;20175;-75
2023/09/02 03:33:54;;;;;;;2.13;1.50;;;;;;;;;;5030732;28;20211;-74
2023/09/02 03:36:22;;;;;;;2.10;1.80;;;;;;;;;;5029427;28;20220;-75
2023/09/02 03:38:47;;;;;;;2.80;1.70;;;;;;;;;;5031243;28;20171;-75
2023/09/02 03:41:12;;;;;;;2.07;1.83;;;;;;;;;;5030170;28;20174;-74
2023/09/02 03:43:38;;;;;;;2.30;2.10;;;;;;;;;;5031029;28;20178;-74
2023/09/02 03:46:03;;;;;;;2.87;2.07;;;;;;;;;;5010723;28;20187;-74
2023/09/02 03:48:28;;;;;;;2.30;1.70;;;;;;;;;;5029787;28;20192;-75
2023/09/02 03:51:05;;;;;;;1.93;1.60;;;;;;;;;;5028511;28;20190;-75
2023/09/02 03:53:33;;;;;;;2.83;2.60;;;;;;;;;;5012914;28;20179;-75
2023/09/02 03:55:59;;;;;;;3.33;2.10;;;;;;;;;;5027622;28;20201;-75
2023/09/02 03:58:25;;;;;;;2.30;2.10;;;;;;;;;;5027817;28;20232;-75
2023/09/02 04:00:50;;;;;;;2.57;2.20;;;;;;;;;;5020426;28;20177;-75
2023/09/02 04:03:15;;;;;;;3.23;2.17;;;;;;;;;;5015851;28;20176;-75
2023/09/02 04:05:41;;;;;;;2.20;2.00;;;;;;;;;;5031938;28;20181;-75
2023/09/02 04:08:06;;;;;;;2.60;2.30;;;;;;;;;;5017991;28;20178;-75
2023/09/02 04:10:31;;;;;;;3.27;2.03;;;;;;;;;;5033736;28;20200;-75
2023/09/02 04:12:56;;;;;;;2.03;1.83;;;;;;;;;;5030961;28;20253;-75
2023/09/02 04:15:22;;;;;;;3.23;1.83;;;;;;;;;;5032091;28;20206;-75
2023/09/02 04:17:47;;;;;;;2.63;1.80;;;;;;;;;;5034082;28;20168;-75
2023/09/02 04:20:12;;;;;;;2.77;2.00;;;;;;;;;;5011888;28;20261;-75
2023/09/02 04:22:37;;;;;;;2.27;2.00;;;;;;;;;;5018689;28;20212;-75
2023/09/02 04:25:03;;;;;;;2.67;2.20;;;;;;;;;;5017427;28;20173;-75
2023/09/02 04:27:28;;;;;;;2.97;2.37;;;;;;;;;;5015936;28;20273;-75
2023/09/02 04:29:53;;;;;;;2.10;1.90;;;;;;;;;;5014767;28;20192;-74
2023/09/02 04:32:19;;;;;;;2.10;1.90;;;;;;;;;;5013668;28;20198;-75
2023/09/02 04:34:46;;;;;;;2.33;2.10;;;;;;;;;;5030704;28;20256;-75
2023/09/02 04:37:11;;;;;;;2.20;2.00;;;;;;;;;;5013479;28;20359;-75
2023/09/02 04:39:40;;;;;;;3.57;2.43;;;;;;;;;;5035055;28;20260;-75
2023/09/02 04:42:05;;;;;;;2.67;1.97;;;;;;;;;;5013095;28;20272;-75
2023/09/02 04:44:30;;;;;;;2.33;2.13;;;;;;;;;;5017220;28;20288;-75
2023/09/02 04:46:55;;;;;;;2.10;1.90;;;;;;;;;;5014794;28;20189;-75
2023/09/02 04:49:21;;;;;;;4.43;2.80;;;;;;;;;;5032235;28;20200;-75
2023/09/02 04:51:47;;;;;;;2.87;2.10;;;;;;;;;;5032778;28;20176;-75
2023/09/02 04:54:14;;;;;;;9.80;3.13;;;;;;;;;;5029898;28;20185;-75
2023/09/02 04:56:39;;;;;;;2.70;2.50;;;;;;;;;;5032556;28;20272;-75
2023/09/02 04:59:04;;;;;;;3.07;2.27;;;;;;;;;;5029842;28;20248;-75
2023/09/02 05:01:29;;;;;;;4.10;2.40;;;;;;;;;;5016086;28;20176;-75
2023/09/02 05:03:55;;;;;;;2.30;2.10;;;;;;;;;;5014686;28;20243;-75
2023/09/02 05:06:20;;;;;;;4.30;2.43;;;;;;;;;;5015749;28;20181;-75
2023/09/02 05:08:45;;;;;;;2.90;2.60;;;;;;;;;;5012086;28;20182;-75
2023/09/02 05:11:10;;;;;;;8.27;2.30;;;;;;;;;;5017387;28;20245;-75
2023/09/02 05:13:36;;;;;;;4.07;2.00;;;;;;;;;;5031736;28;20227;-75
2023/09/02 05:16:01;;;;;;;2.63;2.40;;;;;;;;;;5010167;28;20276;-75
2023/09/02 05:18:26;;;;;;;3.60;2.90;;;;;;;;;;5008915;28;20180;-75
2023/09/02 05:20:55;;;;;;;2.33;2.13;;;;;;;;;;5028593;28;20190;-75
2023/09/02 05:23:20;;;;;;;3.03;2.50;;;;;;;;;;5025156;28;20179;-75
2023/09/02 05:25:46;;;;;;;3.30;2.83;;;;;;;;;;5015317;28;20181;-75
2023/09/02 05:28:11;;;;;;;2.70;2.50;;;;;;;;;;5015845;28;20208;-75
2023/09/02 05:30:36;;;;;;;4.70;2.60;;;;;;;;;;5027650;28;20188;-75
2023/09/02 05:33:01;;;;;;;4.00;2.60;;;;;;;;;;5027181;28;20190;-75
2023/09/02 05:35:27;;;;;;;2.97;2.43;;;;;;;;;;5029965;28;20247;-75
2023/09/02 05:37:52;;;;;;;5.93;3.53;;;;;;;;;;5031268;28;20186;-75
2023/09/02 05:40:17;;;;;;;3.87;2.80;;;;;;;;;;5032573;28;20168;-74
2023/09/02 05:42:43;;;;;;;3.50;3.03;;;;;;;;;;5032486;28;20243;-74
2023/09/02 05:45:08;;;;;;;4.93;2.93;;;;;;;;;;5014881;28;20181;-75
2023/09/02 05:47:33;;;;;;;4.50;2.90;;;;;;;;;;5026916;28;20182;-75
2023/09/02 05:50:00;;;;;;;3.30;3.00;;;;;;;;;;5029566;28;20190;-75
2023/09/02 05:52:26;;;;;;;6.13;3.30;;;;;;;;;;5029692;28;20184;-75
2023/09/02 05:54:51;;;;;;;3.30;3.00;;;;;;;;;;5030217;28;20262;-75
2023/09/02 05:57:16;;;;;;;2.50;2.30;;;;;;;;;;5029389;28;20249;-74
2023/09/02 05:59:43;;;;;;;2.80;2.50;;;;;;;;;;5011927;28;20196;-74
2023/09/02 06:02:08;;;;;;;2.67;2.47;;;;;;;;;;5010376;28;20181;-74
2023/09/02 06:04:33;;;;;;;2.73;2.50;;;;;;;;;;5027163;28;20189;-75
2023/09/02 06:06:59;;;;;;;5.60;2.90;;;;;;;;;;5031430;28;20184;-75
2023/09/02 06:09:26;;;;;;;2.87;2.63;;;;;;;;;;5025776;28;20287;-75
2023/09/02 06:11:51;;;;;;;6.00;3.37;;;;;;;;;;5037307;28;20234;-75
2023/09/02 06:14:17;;;;;;;4.23;2.80;;;;;;;;;;5031545;28;20180;-74
2023/09/02 06:16:42;;;;;;;5.40;2.60;;;;;;;;;;5030295;28;20198;-75
2023/09/02 06:19:07;;;;;;;3.40;2.50;;;;;;;;;;5029324;28;20171;-75
2023/09/02 06:21:32;;;;;;;3.10;2.77;;;;;;;;;;5011641;28;20260;-75
2023/09/02 06:23:57;;;;;;;2.90;2.60;;;;;;;;;;5013077;28;20179;-75
2023/09/02 06:26:24;;;;;;;5.03;2.70;;;;;;;;;;5029671;28;20186;-74
2023/09/02 06:28:49;;;;;;;4.73;2.60;;;;;;;;;;5009026;28;20187;-74
2023/09/02 06:31:14;;;;;;;3.77;3.30;;;;;;;;;;5030917;28;20185;-74
2023/09/02 06:33:39;;;;;;;4.57;2.47;;;;;;;;;;5028855;28;20226;-74
2023/09/02 06:36:11;;;;;;;5.10;2.80;;;;;;;;;;5031083;28;20232;-74
2023/09/02 06:38:37;;;;;;;3.03;2.50;;;;;;;;;;5016051;28;20175;-74
2023/09/02 06:41:08;;;;;;;3.27;2.20;;;;;;;;;;5030718;28;20164;-74
2023/09/02 06:43:33;;;;;;;2.30;2.00;;;;;;;;;;5030202;28;20235;-75
2023/09/02 06:46:06;;;;;;;3.43;2.83;;;;;;;;;;5023528;28;20175;-74
2023/09/02 06:48:32;;;;;;;2.17;1.90;;;;;;;;;;5013337;28;20180;-74
2023/09/02 06:50:57;;;;;;;3.80;2.50;;;;;;;;;;5030630;28;20180;-75
2023/09/02 06:53:22;;;;;;;3.63;2.30;;;;;;;;;;5030173;28;20196;-74
2023/09/02 06:55:47;;;;;;;3.07;2.23;;;;;;;;;;5032436;28;20198;-74
2023/09/02 06:58:12;;;;;;;3.37;2.13;;;;;;;;;;5030175;28;20203;-75
2023/09/02 07:00:38;;;;;;;4.10;2.37;;;;;;;;;;5027150;28;20182;-75
2023/09/02 07:03:03;;;;;;;2.97;2.27;;;;;;;;;;5027202;28;20178;-74
2023/09/02 07:05:28;;;;;;;4.37;2.60;;;;;;;;;;5028813;28;20193;-74
2023/09/02 07:07:54;;;;;;;3.30;2.20;;;;;;;;;;5030379;28;20195;-74
2023/09/02 07:10:19;;;;;;;2.00;1.80;;;;;;;;;;5012307;28;20203;-74
2023/09/02 07:12:44;;;;;;;3.23;2.00;;;;;;;;;;5028908;28;20266;-74
2023/09/02 07:15:09;;;;;;;2.63;2.07;;;;;;;;;;5011617;28;20228;-74
2023/09/02 07:17:35;;;;;;;3.73;2.30;;;;;;;;;;5020524;28;20175;-74
2023/09/02 07:20:00;;;;;;;3.40;2.40;;;;;;;;;;5015735;28;20204;-75
2023/09/02 07:22:25;;;;;;;2.27;2.03;;;;;;;;;;5023135;28;20178;-74
2023/09/02 07:24:50;;;;;;;3.40;2.37;;;;;;;;;;5031962;28;20232;-74
2023/09/02 07:27:15;;;;;;;4.13;2.23;;;;;;;;;;5029376;28;20228;-74
2023/09/02 07:29:41;;;;;;;2.97;1.87;;;;;;;;;;5030438;28;20187;-74
2023/09/02 07:32:06;;;;;;;14.27;3.07;;;;;;;;;;5028162;28;20256;-74
2023/09/02 07:34:37;;;;;;;3.07;1.87;;;;;;;;;;5012921;28;20187;-74
2023/09/02 07:37:02;;;;;;;4.73;2.87;;;;;;;;;;5032954;28;20198;-74
2023/09/02 07:39:28;;;;;;;1.97;1.87;;;;;;;;;;5030610;28;20166;-74
2023/09/02 07:41:53;;;;;;;3.97;2.20;;;;;;;;;;5028238;28;20175;-74
2023/09/02 07:44:18;;;;;;;2.40;2.20;;;;;;;;;;5023807;28;20198;-74
2023/09/02 07:46:43;;;;;;;2.07;1.83;;;;;;;;;;5027471;28;20186;-74
2023/09/02 07:49:08;;;;;;;3.00;2.20;;;;;;;;;;5026635;28;20171;-74
2023/09/02 07:51:34;;;;;;;6.47;2.40;;;;;;;;;;5028472;28;20317;-74
2023/09/02 07:53:59;;;;;;;2.57;2.00;;;;;;;;;;5026365;28;20179;-75
2023/09/02 07:56:24;;;;;;;3.23;1.90;;;;;;;;;;5008382;28;20198;-74
2023/09/02 07:58:50;;;;;;;3.10;2.20;;;;;;;;;;5026998;28;20265;-74
2023/09/02 08:01:16;;;;;;;3.20;1.90;;;;;;;;;;5026277;28;20181;-74
2023/09/02 08:03:41;;;;;;;2.93;1.77;;;;;;;;;;5004683;28;20205;-74
2023/09/02 08:06:08;;;;;;;3.20;1.90;;;;;;;;;;5004660;28;20187;-74
2023/09/02 08:08:33;;;;;;;2.70;2.07;;;;;;;;;;5006149;28;20176;-74
2023/09/02 08:11:05;;;;;;;10.43;2.30;;;;;;;;;;5007020;28;20277;-74
2023/09/02 08:13:31;;;;;;;2.47;2.27;;;;;;;;;;5031842;28;20189;-74
2023/09/02 08:15:56;;;;;;;2.30;2.00;;;;;;;;;;5031044;28;20201;-74
2023/09/02 08:18:22;;;;;;;1.90;1.80;;;;;;;;;;5036736;28;20283;-74
2023/09/02 08:20:47;;;;;;;2.53;2.30;;;;;;;;;;5030796;28;20180;-74
2023/09/02 08:23:12;;;;;;;2.50;1.57;;;;;;;;;;5027567;28;20183;-74
2023/09/02 08:25:37;;;;;;;3.30;2.27;;;;;;;;;;5015504;28;20203;-74
2023/09/02 08:28:02;;;;;;;3.20;2.10;;;;;;;;;;5028000;28;20188;-75
2023/09/02 08:30:28;;;;;;;4.27;2.00;;;;;;;;;;5032139;28;20174;-74
2023/09/02 08:32:53;;;;;;;2.13;1.77;;;;;;;;;;5015562;28;20182;-75
2023/09/02 08:35:18;;;;;;;2.80;2.50;;;;;;;;;;5028172;28;20184;-74
2023/09/02 08:37:43;;;;;;;2.53;1.93;;;;;;;;;;5030222;28;20209;-73
2023/09/02 08:40:08;;;;;;;2.20;2.00;;;;;;;;;;5014994;28;20182;-74
2023/09/02 08:42:36;;;;;;;3.63;1.90;;;;;;;;;;5036814;28;20214;-74
2023/09/02 08:45:03;;;;;;;2.17;1.90;;;;;;;;;;5028229;28;20173;-74
2023/09/02 08:47:29;;;;;;;2.87;1.83;;;;;;;;;;5017986;28;20187;-74
2023/09/02 08:49:55;;;;;;;3.00;2.10;;;;;;;;;;5032860;28;20179;-75
2023/09/02 08:52:21;;;;;;;3.87;2.23;;;;;;;;;;5013771;28;20262;-75
2023/09/02 08:54:46;;;;;;;2.00;1.80;;;;;;;;;;5031412;28;20217;-74
2023/09/02 08:57:15;;;;;;;5.27;2.23;;;;;;;;;;5018781;28;20205;-75
2023/09/02 08:59:41;;;;;;;2.60;2.10;;;;;;;;;;5014929;28;20169;-74
2023/09/02 09:02:07;;;;;;;2.70;2.10;;;;;;;;;;5016754;28;20180;-74
2023/09/02 09:04:36;;;;;;;2.67;1.83;;;;;;;;;;5030722;28;20198;-74
2023/09/02 09:07:03;;;;;;;1.70;1.60;;;;;;;;;;5023393;28;20191;-73
2023/09/02 09:09:28;;;;;;;4.23;2.00;;;;;;;;;;5011264;28;20193;-73
2023/09/02 09:11:54;;;;;;;1.90;1.80;;;;;;;;;;5012854;28;20251;-74
2023/09/02 09:14:23;;;;;;;3.20;1.80;;;;;;;;;;5013220;28;20180;-74
2023/09/02 09:16:51;;;;;;;3.63;2.20;;;;;;;;;;4994742;28;20205;-74
2023/09/02 09:19:17;;;;;;;3.30;1.80;;;;;;;;;;5011351;28;20175;-74
2023/09/02 09:21:43;;;;;;;2.17;1.70;;;;;;;;;;4999439;28;20183;-75
2023/09/02 09:24:10;;;;;;;1.83;1.50;;;;;;;;;;5011395;28;20235;-74
2023/09/02 09:26:36;;;;;;;3.53;2.20;;;;;;;;;;5012107;28;20177;-73
2023/09/02 09:29:01;;;;;;;2.10;1.77;;;;;;;;;;4998742;28;20190;-75
2023/09/02 09:31:27;;;;;;;1.85;1.70;;;;;;;;;;5007601;28;20186;-74
2023/09/02 09:33:54;;;;;;;2.30;1.40;;;;;;;;;;5011899;28;20181;-74
2023/09/02 09:36:22;;;;;;;1.63;1.53;;;;;;;;;;5012961;28;20199;-74
2023/09/02 09:38:49;;;;;;;6.20;2.07;;;;;;;;;;4999028;28;20172;-74
2023/09/02 09:41:14;;;;;;;1.83;1.50;;;;;;;;;;5011720;28;20171;-74
2023/09/02 09:43:39;;;;;;;1.97;1.60;;;;;;;;;;5011489;28;20175;-74
2023/09/02 09:46:04;;;;;;;1.70;1.60;;;;;;;;;;4993897;28;20185;-74
2023/09/02 09:48:30;;;;;;;3.47;1.90;;;;;;;;;;4999071;28;20171;-75
2023/09/02 09:50:55;;;;;;;2.57;1.70;;;;;;;;;;5011304;28;20179;-74
2023/09/02 09:53:20;;;;;;;2.70;2.50;;;;;;;;;;5012060;28;20178;-74
2023/09/02 09:55:46;;;;;;;1.98;1.70;;;;;;;;;;5011501;28;20219;-74
2023/09/02 09:58:11;;;;;;;1.90;1.80;;;;;;;;;;5005489;28;20175;-74
2023/09/02 10:00:37;;;;;;;2.33;1.65;;;;;;;;;;5010519;28;20187;-75
2023/09/02 10:03:02;;;;;;;3.00;2.10;;;;;;;;;;5011266;28;20258;-74
2023/09/02 10:05:31;;;;;;;1.98;1.77;;;;;;;;;;5006549;28;20180;-74
2023/09/02 10:08:06;;;;;;;4.10;2.05;;;;;;;;;;5011193;28;20180;-74
2023/09/02 10:10:35;;;;;;;1.95;1.77;;;;;;;;;;4989871;28;20187;-74
2023/09/02 10:13:01;;;;;;;2.53;2.05;;;;;;;;;;5025776;28;20230;-74
2023/09/02 10:15:27;;;;;;;2.75;2.05;;;;;;;;;;5010592;28;20191;-74
2023/09/02 10:17:57;;;;;;;1.63;1.52;;;;;;;;;;5027267;28;20171;-74
2023/09/02 10:20:23;;;;;;;1.98;1.80;;;;;;;;;;5028676;28;20181;-74
2023/09/02 10:22:50;;;;;;;2.53;2.10;;;;;;;;;;5031339;28;20233;-74
2023/09/02 10:25:19;;;;;;;2.15;1.95;;;;;;;;;;5028752;28;20259;-75
2023/09/02 10:27:46;;;;;;;2.95;1.80;;;;;;;;;;5030947;28;20167;-74
2023/09/02 10:30:18;;;;;;;3.17;1.90;;;;;;;;;;5013681;28;20179;-74
2023/09/02 10:32:48;;;;;;;1.80;1.70;;;;;;;;;;5014441;28;20218;-74
2023/09/02 10:35:18;;;;;;;2.78;2.17;;;;;;;;;;5027830;28;20190;-74
2023/09/02 10:37:45;;;;;;;2.55;2.15;;;;;;;;;;5024509;28;20171;-74
2023/09/02 10:40:15;;;;;;;2.10;1.90;;;;;;;;;;5006799;28;20179;-74
2023/09/02 10:42:40;;;;;;;2.30;1.65;;;;;;;;;;5023969;28;20210;-75
2023/09/02 10:45:06;;;;;;;4.75;2.20;;;;;;;;;;5015417;28;20199;-75
2023/09/02 10:47:31;;;;;;;2.38;1.92;;;;;;;;;;5030839;28;20223;-74
2023/09/02 10:49:57;;;;;;;2.80;2.00;;;;;;;;;;5031101;28;20210;-74
2023/09/02 10:52:22;;;;;;;2.28;2.05;;;;;;;;;;5012316;28;20181;-75
2023/09/02 10:54:58;;;;;;;2.85;2.05;;;;;;;;;;5013479;28;20186;-74
2023/09/02 10:57:24;;;;;;;2.15;1.67;;;;;;;;;;5029766;28;20233;-75
2023/09/02 10:59:49;;;;;;;3.47;2.15;;;;;;;;;;5013418;28;20171;-74
2023/09/02 11:02:14;;;;;;;2.20;2.00;;;;;;;;;;5018781;28;20175;-74
2023/09/02 11:04:39;;;;;;;2.65;2.10;;;;;;;;;;5030555;28;20174;-74
2023/09/02 11:07:20;;;;;;;2.10;1.80;;;;;;;;;;5020526;28;20183;-74
2023/09/02 11:09:52;;;;;;;2.50;2.00;;;;;;;;;;5025355;28;20490;-75
2023/09/02 11:12:17;;;;;;;2.90;2.00;;;;;;;;;;5018075;28;20231;-74
2023/09/02 11:15:02;;;;;;;3.05;2.00;;;;;;;;;;5030942;28;20189;-74
2023/09/02 11:17:28;;;;;;;1.98;1.88;;;;;;;;;;5029287;28;20209;-74
2023/09/02 11:20:06;;;;;;;2.15;1.95;;;;;;;;;;5031069;28;20171;-75
2023/09/02 11:22:49;;;;;;;2.25;1.90;;;;;;;;;;5028240;28;20206;-74
2023/09/02 11:25:33;;;;;;;2.42;2.22;;;;;;;;;;5018217;28;20306;-74
2023/09/02 11:28:02;;;;;;;2.20;2.00;;;;;;;;;;5028145;28;20328;-75
2023/09/02 11:30:29;;;;;;;2.72;1.90;;;;;;;;;;5027692;28;20201;-74
2023/09/02 11:32:55;;;;;;;1.85;1.58;;;;;;;;;;5012804;28;20300;-75
2023/09/02 11:35:25;;;;;;;2.20;2.00;;;;;;;;;;5010204;28;20261;-75
2023/09/02 11:37:50;;;;;;;2.22;2.03;;;;;;;;;;5029267;28;20174;-75
2023/09/02 11:40:16;;;;;;;2.55;2.10;;;;;;;;;;5029595;28;20179;-74
2023/09/02 11:42:50;;;;;;;6.47;2.30;;;;;;;;;;5029406;28;20178;-74
2023/09/02 11:45:16;;;;;;;2.67;2.35;;;;;;;;;;5030899;28;20174;-74
2023/09/02 11:47:41;;;;;;;2.55;2.10;;;;;;;;;;5011867;28;20177;-74
2023/09/02 11:50:13;;;;;;;2.38;2.17;;;;;;;;;;5028794;28;20202;-75
2023/09/02 11:52:39;;;;;;;2.25;1.90;;;;;;;;;;5025145;28;20235;-75
2023/09/02 11:55:06;;;;;;;2.45;2.25;;;;;;;;;;5030709;28;20175;-75
2023/09/02 11:57:32;;;;;;;3.83;2.25;;;;;;;;;;5021144;28;20237;-75
2023/09/02 11:59:57;;;;;;;3.78;2.28;;;;;;;;;;5030744;28;20179;-75
2023/09/02 12:02:23;;;;;;;3.78;2.05;;;;;;;;;;5011627;28;20175;-75
2023/09/02 12:04:48;;;;;;;2.88;2.58;;;;;;;;;;5030345;28;20178;-75
2023/09/02 12:07:13;;;;;;;3.08;2.28;;;;;;;;;;5028080;28;20186;-75
2023/09/02 12:09:38;;;;;;;3.22;2.63;;;;;;;;;;5030384;28;20202;-75
2023/09/02 12:12:06;;;;;;;2.30;2.10;;;;;;;;;;5002006;28;20238;-75
2023/09/02 12:14:31;;;;;;;2.75;1.88;;;;;;;;;;5019823;28;20215;-75
2023/09/02 12:16:58;;;;;;;1.92;1.83;;;;;;;;;;5001449;28;20222;-75
2023/09/02 12:19:23;;;;;;;3.13;2.28;;;;;;;;;;5011674;28;20180;-75
2023/09/02 12:21:48;;;;;;;2.38;2.13;;;;;;;;;;5013697;28;20167;-75
2023/09/02 12:24:14;;;;;;;3.33;1.90;;;;;;;;;;5018463;28;20176;-75
2023/09/02 12:26:51;;;;;;;3.55;2.40;;;;;;;;;;5003955;28;20187;-75
2023/09/02 12:29:17;;;;;;;2.33;2.13;;;;;;;;;;4995549;28;20175;-75
2023/09/02 12:31:49;;;;;;;2.58;2.38;;;;;;;;;;4999355;28;20180;-75
2023/09/02 12:34:15;;;;;;;2.38;2.17;;;;;;;;;;5009769;28;20183;-75
2023/09/02 12:36:40;;;;;;;3.30;2.20;;;;;;;;;;5013200;28;20250;-75
2023/09/02 12:39:05;;;;;;;2.67;1.85;;;;;;;;;;4996784;28;20518;-75
2023/09/02 12:41:37;;;;;;;2.35;2.15;;;;;;;;;;5013261;28;20184;-75
2023/09/02 12:44:11;;;;;;;2.90;1.73;;;;;;;;;;5012193;28;20185;-75
2023/09/02 12:46:37;;;;;;;2.72;2.35;;;;;;;;;;5000305;28;20266;-75
2023/09/02 12:49:02;;;;;;;3.95;2.22;;;;;;;;;;5011360;28;20280;-75
2023/09/02 12:51:27;;;;;;;2.38;2.08;;;;;;;;;;4999357;28;20199;-75
2023/09/02 12:53:53;;;;;;;2.50;1.90;;;;;;;;;;4999586;28;20183;-75
2023/09/02 12:56:18;;;;;;;2.65;1.88;;;;;;;;;;5013545;28;20203;-75
2023/09/02 12:58:43;;;;;;;2.78;1.95;;;;;;;;;;4998256;28;20172;-75
2023/09/02 13:01:08;;;;;;;2.20;2.00;;;;;;;;;;5012865;28;20191;-75
2023/09/02 13:03:33;;;;;;;3.22;2.22;;;;;;;;;;4997025;28;20322;-75
2023/09/02 13:05:59;;;;;;;1.75;1.65;;;;;;;;;;5011428;28;20245;-75
2023/09/02 13:08:24;;;;;;;4.15;2.22;;;;;;;;;;5002532;28;20198;-75
2023/09/02 13:10:50;;;;;;;1.77;1.67;;;;;;;;;;5016052;28;20207;-75
2023/09/02 13:13:15;;;;;;;7.30;2.35;;;;;;;;;;5032484;28;20197;-76
2023/09/02 13:15:41;;;;;;;2.85;2.10;;;;;;;;;;5015568;28;20207;-75
2023/09/02 13:18:06;;;;;;;4.25;2.10;;;;;;;;;;5030622;28;20183;-75
2023/09/02 13:20:35;;;;;;;3.53;2.20;;;;;;;;;;5029679;28;20182;-75
2023/09/02 13:23:00;;;;;;;3.30;2.10;;;;;;;;;;5014741;28;20175;-75
2023/09/02 13:25:26;;;;;;;5.03;1.90;;;;;;;;;;5016020;28;20194;-75
2023/09/02 13:27:51;;;;;;;8.23;2.75;;;;;;;;;;5013432;28;20229;-75
2023/09/02 13:30:19;;;;;;;3.58;2.08;;;;;;;;;;5011609;28;20262;-75
2023/09/02 13:32:44;;;;;;;2.30;1.85;;;;;;;;;;5018682;28;20182;-76
2023/09/02 13:35:17;;;;;;;3.20;1.88;;;;;;;;;;5008928;28;20221;-75
2023/09/02 13:37:43;;;;;;;10.18;2.90;;;;;;;;;;5020212;28;20206;-75
2023/09/02 13:40:14;;;;;;;2.80;2.08;;;;;;;;;;5033295;28;20181;-76
2023/09/02 13:42:42;;;;;;;3.95;2.45;;;;;;;;;;5029957;28;20182;-75
2023/09/02 13:45:11;;;;;;;2.38;2.00;;;;;;;;;;5014598;28;20179;-75
2023/09/02 13:47:37;;;;;;;2.55;2.35;;;;;;;;;;5031436;28;20206;-75
2023/09/02 13:50:02;;;;;;;3.78;2.22;;;;;;;;;;5017487;28;20193;-75
2023/09/02 13:52:27;;;;;;;3.25;2.30;;;;;;;;;;5030281;28;20174;-75
2023/09/02 13:54:54;;;;;;;1.95;1.75;;;;;;;;;;5031465;28;20183;-74
2023/09/02 13:57:22;;;;;;;2.75;2.53;;;;;;;;;;5030015;28;20213;-75
2023/09/02 13:59:48;;;;;;;3.63;2.20;;;;;;;;;;5031341;28;20210;-75
2023/09/02 14:02:14;;;;;;;2.95;1.85;;;;;;;;;;5031089;28;20179;-75
2023/09/02 14:04:44;;;;;;;2.28;2.08;;;;;;;;;;5031189;28;20175;-76
2023/09/02 14:07:09;;;;;;;2.92;1.83;;;;;;;;;;5030023;28;20210;-75
2023/09/02 14:09:35;;;;;;;2.67;2.38;;;;;;;;;;5014655;28;20286;-76
2023/09/02 14:12:01;;;;;;;2.17;1.98;;;;;;;;;;5030419;28;20234;-75
2023/09/02 14:14:26;;;;;;;1.90;1.80;;;;;;;;;;5026969;28;20276;-75
2023/09/02 14:16:51;;;;;;;2.15;1.95;;;;;;;;;;5030444;28;20206;-75
2023/09/02 14:19:16;;;;;;;2.85;2.33;;;;;;;;;;5032147;28;20174;-75
2023/09/02 14:21:42;;;;;;;1.88;1.75;;;;;;;;;;5014072;28;20269;-75
2023/09/02 14:24:07;;;;;;;3.50;2.40;;;;;;;;;;5014513;28;20197;-75
2023/09/02 14:26:32;;;;;;;3.15;2.55;;;;;;;;;;5028937;28;20179;-75
2023/09/02 14:28:58;;;;;;;2.13;1.92;;;;;;;;;;5035987;28;20179;-75
2023/09/02 14:31:23;;;;;;;2.28;2.08;;;;;;;;;;5027446;28;20278;-75
2023/09/02 14:33:48;;;;;;;2.30;2.10;;;;;;;;;;5016122;28;20185;-75
2023/09/02 14:36:13;;;;;;;3.17;1.95;;;;;;;;;;5030965;28;20235;-75
2023/09/02 14:38:39;;;;;;;2.60;1.98;;;;;;;;;;5014548;28;20213;-76